Time;durP1;ratioP1;P1;durP2;ratioP2;P2;SDS_P1;SDS_P2;PMS_P1;PMS_P2;Temp;Humidity;BMP_temperature;BMP_pressure;BME280_temperature;BME280_humidity;BME280_pressure;Samples;Min_cycle;Max_cycle;Signal;HPM_P1;HPM_P2
2023/03/22 00:01:20;;;;;;;4.68;2.10;;;10.10;99.90;;;;;;5068289;28;20038;-72
2023/03/22 00:03:46;;;;;;;4.55;1.88;;;10.10;99.90;;;;;;5071071;28;20076;-72
2023/03/22 00:06:12;;;;;;;5.97;2.30;;;10.10;99.90;;;;;;5070735;28;20051;-72
2023/03/22 00:08:38;;;;;;;8.23;2.47;;;10.10;99.90;;;;;;5071886;28;20040;-72
2023/03/22 00:11:04;;;;;;;6.28;2.17;;;10.10;99.90;;;;;;5069003;28;20059;-72
2023/03/22 00:13:31;;;;;;;6.68;2.50;;;10.00;99.90;;;;;;5072368;28;20527;-72
2023/03/22 00:15:58;;;;;;;5.68;2.63;;;10.00;99.90;;;;;;5073406;28;20042;-72
2023/03/22 00:18:24;;;;;;;4.72;2.45;;;10.00;99.90;;;;;;5072888;28;20504;-72
2023/03/22 00:20:52;;;;;;;5.00;2.53;;;10.00;99.90;;;;;;5066905;28;20024;-72
2023/03/22 00:23:19;;;;;;;6.45;2.58;;;10.00;99.90;;;;;;5071221;28;20095;-72
2023/03/22 00:25:45;;;;;;;8.38;2.30;;;9.90;99.90;;;;;;5109504;27;20032;-72
2023/03/22 00:28:12;;;;;;;7.18;2.72;;;9.90;99.90;;;;;;5068183;28;20127;-72
2023/03/22 00:30:38;;;;;;;7.65;2.35;;;9.90;99.90;;;;;;5073715;28;20042;-72
2023/03/22 00:33:04;;;;;;;6.53;2.47;;;9.90;99.90;;;;;;5084538;28;20033;-72
2023/03/22 00:35:29;;;;;;;4.25;1.80;;;9.90;99.90;;;;;;5065375;28;20051;-72
2023/03/22 00:37:55;;;;;;;5.80;2.58;;;9.90;99.90;;;;;;5061430;28;20032;-72
2023/03/22 00:40:21;;;;;;;10.57;2.47;;;9.90;99.90;;;;;;5066656;28;20048;-72
2023/03/22 00:42:47;;;;;;;9.07;2.35;;;9.80;99.90;;;;;;5074071;28;20417;-72
2023/03/22 00:45:13;;;;;;;4.85;2.08;;;9.80;99.90;;;;;;5071019;28;20102;-72
2023/03/22 00:47:39;;;;;;;4.82;2.03;;;9.80;99.90;;;;;;5081033;28;20052;-72
2023/03/22 00:50:06;;;;;;;3.20;1.80;;;9.70;99.90;;;;;;5069975;28;20367;-72
2023/03/22 00:52:32;;;;;;;6.28;1.95;;;9.80;99.90;;;;;;5071001;28;20124;-71
2023/03/22 00:54:58;;;;;;;7.38;2.25;;;9.70;99.90;;;;;;5069351;28;20464;-72
2023/03/22 00:57:23;;;;;;;4.82;2.13;;;9.70;99.90;;;;;;5074021;28;20040;-72
2023/03/22 00:59:51;;;;;;;6.10;2.00;;;9.70;99.90;;;;;;5073083;28;20043;-72
2023/03/22 01:02:17;;;;;;;6.07;1.77;;;9.80;99.90;;;;;;5068778;28;20456;-72
2023/03/22 01:04:46;;;;;;;3.28;1.73;;;9.70;99.90;;;;;;5072498;28;20128;-72
2023/03/22 01:07:20;;;;;;;3.97;1.60;;;9.70;99.90;;;;;;5074989;28;20059;-72
2023/03/22 01:09:50;;;;;;;5.13;2.13;;;9.70;99.90;;;;;;5074959;28;20036;-72
2023/03/22 01:12:17;;;;;;;6.40;1.63;;;9.70;99.90;;;;;;5071432;28;22048;-72
2023/03/22 01:14:43;;;;;;;4.70;1.60;;;9.70;99.90;;;;;;5074514;28;20717;-72
2023/03/22 01:17:09;;;;;;;4.28;1.85;;;9.70;99.90;;;;;;5074105;28;20469;-72
2023/03/22 01:19:35;;;;;;;5.05;1.50;;;9.70;99.90;;;;;;5072736;28;20393;-72
2023/03/22 01:22:02;;;;;;;4.28;1.42;;;9.70;99.90;;;;;;5076253;28;20047;-72
2023/03/22 01:24:28;;;;;;;2.83;1.27;;;9.70;99.90;;;;;;5071530;28;20044;-72
2023/03/22 01:26:54;;;;;;;3.85;1.48;;;9.70;99.90;;;;;;5076445;28;20525;-72
2023/03/22 01:29:20;;;;;;;4.43;1.58;;;9.70;99.90;;;;;;5067130;28;20048;-72
2023/03/22 01:31:46;;;;;;;1.98;1.02;;;9.60;99.90;;;;;;5067351;28;20047;-72
2023/03/22 01:34:11;;;;;;;3.92;1.52;;;9.70;99.90;;;;;;5085800;28;20049;-72
2023/03/22 01:36:37;;;;;;;4.95;1.67;;;9.60;99.90;;;;;;5078826;28;20087;-72
2023/03/22 01:39:03;;;;;;;3.85;1.25;;;9.60;99.90;;;;;;5058089;28;20402;-72
2023/03/22 01:41:29;;;;;;;3.78;1.38;;;9.60;99.90;;;;;;5076662;28;20528;-72
2023/03/22 01:44:08;;;;;;;3.00;1.30;;;9.60;99.90;;;;;;5075031;28;20037;-72
2023/03/22 01:46:33;;;;;;;5.30;1.27;;;9.60;99.90;;;;;;5106060;27;20040;-72
2023/03/22 01:49:01;;;;;;;7.55;1.60;;;9.60;99.90;;;;;;5107412;27;20041;-72
2023/03/22 01:51:27;;;;;;;4.50;1.85;;;9.60;99.90;;;;;;5067617;28;20533;-72
2023/03/22 01:54:03;;;;;;;2.08;0.98;;;9.60;99.90;;;;;;5058305;28;20032;-72
2023/03/22 01:56:32;;;;;;;3.05;1.13;;;9.60;99.90;;;;;;5075228;28;20064;-72
2023/03/22 01:58:58;;;;;;;5.80;1.70;;;9.60;99.90;;;;;;5076899;28;20044;-72
2023/03/22 02:01:24;;;;;;;3.70;1.25;;;9.60;99.90;;;;;;5072044;28;20394;-72
2023/03/22 02:03:55;;;;;;;5.25;1.67;;;9.60;99.90;;;;;;5054500;28;20036;-72
2023/03/22 02:06:22;;;;;;;3.45;1.13;;;9.60;99.90;;;;;;5070262;28;20052;-72
2023/03/22 02:08:51;;;;;;;5.43;1.20;;;9.60;99.90;;;;;;5075665;28;20086;-72
2023/03/22 02:11:24;;;;;;;1.90;1.00;;;9.60;99.90;;;;;;5075549;28;20036;-72
2023/03/22 02:14:18;;;;;;;7.65;1.27;;;9.60;99.90;;;;;;5075854;28;20070;-72
2023/03/22 02:17:03;;;;;;;2.70;1.02;;;9.60;99.90;;;;;;5072914;28;20115;-72
2023/03/22 02:19:58;;;;;;;4.63;1.50;;;9.70;99.90;;;;;;5069710;28;20063;-72
2023/03/22 02:22:37;;;;;;;4.07;1.58;;;9.60;99.90;;;;;;5075598;28;20040;-72
2023/03/22 02:25:26;;;;;;;4.30;1.00;;;9.60;99.90;;;;;;5088371;28;20102;-72
2023/03/22 02:28:07;;;;;;;2.35;1.20;;;9.60;99.90;;;;;;5075930;28;20111;-72
2023/03/22 02:30:48;;;;;;;4.63;1.42;;;9.60;99.90;;;;;;5109992;27;20035;-72
2023/03/22 02:33:42;;;;;;;4.07;1.13;;;9.60;99.90;;;;;;5092625;28;20067;-72
2023/03/22 02:36:29;;;;;;;2.25;1.10;;;9.60;99.90;;;;;;5074523;28;20033;-72
2023/03/22 02:39:20;;;;;;;3.92;0.90;;;9.60;99.90;;;;;;5058258;28;20063;-72
2023/03/22 02:41:53;;;;;;;2.88;1.02;;;9.60;99.90;;;;;;5098391;28;20048;-72
2023/03/22 02:44:36;;;;;;;2.03;0.88;;;9.50;99.90;;;;;;5069427;28;20137;-72
2023/03/22 02:47:10;;;;;;;5.65;1.00;;;9.50;99.90;;;;;;5069382;28;20126;-72
2023/03/22 02:49:48;;;;;;;4.30;1.30;;;9.60;99.90;;;;;;5089752;27;20162;-72
2023/03/22 02:52:32;;;;;;;3.78;1.00;;;9.60;99.90;;;;;;5076364;28;21293;-72
2023/03/22 02:55:49;;;;;;;4.40;1.17;;;9.60;99.90;;;;;;5074611;28;20502;-72
2023/03/22 02:58:27;;;;;;;4.07;1.20;;;9.60;99.90;;;;;;5065703;28;20062;-72
2023/03/22 03:00:59;;;;;;;5.05;1.10;;;9.60;99.90;;;;;;5074985;28;20032;-72
2023/03/22 03:03:28;;;;;;;4.90;1.48;;;9.60;99.90;;;;;;5101146;27;20086;-72
2023/03/22 03:06:02;;;;;;;3.40;1.10;;;9.50;99.90;;;;;;5060834;28;20090;-72
2023/03/22 03:08:29;;;;;;;2.08;0.90;;;9.60;99.90;;;;;;5103220;27;20498;-72
2023/03/22 03:10:55;;;;;;;2.22;0.93;;;9.50;99.90;;;;;;5074636;28;20301;-72
2023/03/22 03:13:21;;;;;;;3.67;1.27;;;9.50;99.90;;;;;;5075849;28;20266;-72
2023/03/22 03:15:57;;;;;;;2.22;1.00;;;9.50;99.90;;;;;;5072282;28;20039;-72
2023/03/22 03:18:44;;;;;;;2.53;0.98;;;9.40;99.90;;;;;;5078646;28;20440;-72
2023/03/22 03:21:19;;;;;;;5.07;1.30;;;9.50;99.90;;;;;;5082851;28;20061;-72
2023/03/22 03:23:53;;;;;;;2.92;0.90;;;9.50;99.90;;;;;;5057494;28;20501;-72
2023/03/22 03:26:44;;;;;;;1.65;0.80;;;9.50;99.90;;;;;;5072858;28;20051;-72
2023/03/22 03:29:24;;;;;;;3.45;1.00;;;9.50;99.90;;;;;;5110787;27;20040;-72
2023/03/22 03:32:02;;;;;;;2.05;0.80;;;9.50;99.90;;;;;;5074395;28;20486;-72
2023/03/22 03:34:34;;;;;;;1.58;0.70;;;9.50;99.90;;;;;;5105787;27;20105;-72
2023/03/22 03:37:13;;;;;;;3.30;0.95;;;9.50;99.90;;;;;;5058637;28;20040;-72
2023/03/22 03:39:50;;;;;;;6.60;1.55;;;9.50;99.90;;;;;;5077464;28;20047;-72
2023/03/22 03:42:17;;;;;;;3.88;0.90;;;9.50;99.90;;;;;;5075556;28;20113;-72
2023/03/22 03:44:44;;;;;;;1.92;0.90;;;9.50;99.90;;;;;;5068409;28;20543;-72
2023/03/22 03:47:10;;;;;;;5.60;1.23;;;9.50;99.90;;;;;;5052136;28;20071;-72
2023/03/22 03:49:36;;;;;;;4.45;1.13;;;9.50;99.90;;;;;;5052564;28;20642;-72
2023/03/22 03:52:04;;;;;;;3.85;1.02;;;9.50;99.90;;;;;;5071985;28;20040;-72
2023/03/22 03:54:30;;;;;;;5.47;0.90;;;9.50;99.90;;;;;;5072642;28;20456;-72
2023/03/22 03:56:56;;;;;;;2.08;1.10;;;9.50;99.90;;;;;;5066342;28;20044;-72
2023/03/22 03:59:22;;;;;;;3.33;1.10;;;9.50;99.90;;;;;;5055253;28;20436;-72
2023/03/22 04:01:51;;;;;;;1.67;0.88;;;9.50;99.90;;;;;;5054629;28;20032;-72
2023/03/22 04:04:26;;;;;;;5.05;1.17;;;9.50;99.90;;;;;;5067954;28;20040;-72
2023/03/22 04:06:55;;;;;;;2.35;0.98;;;9.50;99.90;;;;;;5093080;28;20107;-72
2023/03/22 04:09:26;;;;;;;2.53;0.90;;;9.50;99.90;;;;;;5060909;28;20129;-72
2023/03/22 04:11:55;;;;;;;2.42;0.60;;;9.50;99.90;;;;;;5071348;28;20047;-72
2023/03/22 04:14:22;;;;;;;2.83;1.00;;;9.50;99.90;;;;;;5073834;28;20544;-72
2023/03/22 04:16:47;;;;;;;4.07;1.25;;;9.50;99.90;;;;;;5068487;28;20097;-72
2023/03/22 04:19:13;;;;;;;4.68;1.08;;;9.50;99.90;;;;;;5071823;28;20040;-72
2023/03/22 04:21:39;;;;;;;3.25;0.90;;;9.40;99.90;;;;;;5068770;28;20689;-72
2023/03/22 04:24:05;;;;;;;2.25;1.08;;;9.40;99.90;;;;;;5067047;28;20454;-72
2023/03/22 04:26:31;;;;;;;3.63;1.10;;;9.40;99.90;;;;;;5070319;28;20036;-72
2023/03/22 04:29:01;;;;;;;5.53;1.23;;;9.40;99.90;;;;;;5106211;27;20044;-72
2023/03/22 04:31:28;;;;;;;2.55;0.95;;;9.40;99.90;;;;;;5074109;28;20101;-72
2023/03/22 04:33:56;;;;;;;4.32;0.95;;;9.50;99.90;;;;;;5070310;28;20043;-72
2023/03/22 04:36:23;;;;;;;2.28;1.23;;;9.50;99.90;;;;;;5067266;28;20119;-72
2023/03/22 04:38:50;;;;;;;6.43;1.85;;;9.40;99.90;;;;;;5072719;28;20040;-72
2023/03/22 04:41:17;;;;;;;3.03;1.17;;;9.50;99.90;;;;;;5070619;28;20028;-72
2023/03/22 04:43:45;;;;;;;4.57;1.25;;;9.50;99.90;;;;;;5076923;28;20477;-72
2023/03/22 04:46:12;;;;;;;3.42;1.67;;;9.50;99.90;;;;;;5071791;28;20040;-72
2023/03/22 04:48:40;;;;;;;4.20;1.58;;;9.50;99.90;;;;;;5067673;28;20477;-72
2023/03/22 04:51:07;;;;;;;5.28;1.80;;;9.50;99.90;;;;;;5098421;27;20356;-72
2023/03/22 04:53:37;;;;;;;4.43;2.25;;;9.50;99.90;;;;;;5069987;28;20040;-72
2023/03/22 04:56:07;;;;;;;6.18;1.85;;;9.50;99.90;;;;;;5069422;28;20043;-72
2023/03/22 04:58:35;;;;;;;7.78;2.60;;;9.60;99.90;;;;;;5089479;28;20077;-72
2023/03/22 05:01:02;;;;;;;3.78;1.98;;;9.60;99.90;;;;;;5069492;28;20036;-72
2023/03/22 05:03:27;;;;;;;6.57;2.42;;;9.60;99.90;;;;;;5066746;28;20086;-72
2023/03/22 05:05:57;;;;;;;6.13;2.35;;;9.60;99.90;;;;;;5074000;28;20048;-72
2023/03/22 05:08:24;;;;;;;9.23;2.92;;;9.60;99.90;;;;;;5076999;28;20417;-72
2023/03/22 05:10:53;;;;;;;5.25;2.40;;;9.60;99.90;;;;;;5072311;28;20115;-72
2023/03/22 05:13:20;;;;;;;6.07;2.67;;;9.60;99.90;;;;;;5076815;28;20138;-72
2023/03/22 05:15:47;;;;;;;6.50;3.42;;;9.60;99.90;;;;;;5069344;28;20318;-72
2023/03/22 05:18:14;;;;;;;7.07;3.47;;;9.70;99.90;;;;;;5070657;28;20044;-72
2023/03/22 05:20:40;;;;;;;7.50;3.25;;;9.70;99.90;;;;;;5065878;28;20036;-72
2023/03/22 05:23:08;;;;;;;8.15;3.20;;;9.70;99.90;;;;;;5067075;28;20168;-72
2023/03/22 05:25:34;;;;;;;10.02;3.88;;;9.70;99.90;;;;;;5094814;28;20123;-72
2023/03/22 05:28:00;;;;;;;10.35;4.10;;;9.70;99.90;;;;;;5073425;28;20515;-72
2023/03/22 05:30:27;;;;;;;7.45;3.00;;;9.70;99.90;;;;;;5108430;28;20040;-72
2023/03/22 05:33:02;;;;;;;10.90;3.75;;;9.70;99.90;;;;;;5072233;28;20501;-72
2023/03/22 05:35:32;;;;;;;9.13;3.65;;;9.70;99.90;;;;;;5098547;28;20493;-72
2023/03/22 05:37:58;;;;;;;7.82;3.67;;;9.70;99.90;;;;;;5085778;28;20124;-72
2023/03/22 05:40:24;;;;;;;8.00;3.83;;;9.70;99.90;;;;;;5079118;28;20449;-72
2023/03/22 05:42:50;;;;;;;7.68;3.42;;;9.70;99.90;;;;;;5075354;28;20063;-72
2023/03/22 05:45:17;;;;;;;9.52;3.83;;;9.70;99.90;;;;;;5071181;28;20114;-72
2023/03/22 05:47:42;;;;;;;8.88;4.05;;;9.70;99.90;;;;;;5069009;28;20032;-72
2023/03/22 05:50:10;;;;;;;12.77;4.53;;;9.70;99.90;;;;;;5066441;28;20409;-72
2023/03/22 05:52:35;;;;;;;9.95;3.15;;;9.70;99.90;;;;;;5099205;28;20242;-72
2023/03/22 05:55:01;;;;;;;7.30;3.35;;;9.70;99.90;;;;;;5070564;28;20119;-72
2023/03/22 05:57:28;;;;;;;8.60;3.47;;;9.70;99.90;;;;;;5054084;28;20028;-72
2023/03/22 05:59:55;;;;;;;10.25;3.45;;;9.70;99.90;;;;;;5066784;28;20375;-72
2023/03/22 06:02:21;;;;;;;7.70;3.80;;;9.70;99.90;;;;;;5069610;28;20062;-72
2023/03/22 06:04:47;;;;;;;8.90;3.95;;;9.70;99.90;;;;;;5070175;28;20067;-72
2023/03/22 06:07:13;;;;;;;9.38;3.63;;;9.70;99.90;;;;;;5069046;28;20513;-72
2023/03/22 06:09:39;;;;;;;6.63;3.13;;;9.70;99.90;;;;;;5072549;28;20075;-72
2023/03/22 06:12:05;;;;;;;7.70;3.67;;;9.80;99.90;;;;;;5070861;28;20481;-72
2023/03/22 06:14:31;;;;;;;8.35;4.25;;;9.70;99.90;;;;;;5069367;28;20040;-72
2023/03/22 06:16:56;;;;;;;7.80;3.47;;;9.70;99.90;;;;;;5077606;28;20086;-72
2023/03/22 06:19:24;;;;;;;10.25;3.80;;;9.70;99.90;;;;;;5051892;28;20409;-72
2023/03/22 06:21:51;;;;;;;7.38;3.50;;;9.70;99.90;;;;;;5106912;27;21125;-72
2023/03/22 06:24:17;;;;;;;7.97;3.10;;;9.70;99.90;;;;;;5077355;28;20063;-72
2023/03/22 06:26:43;;;;;;;7.85;3.42;;;9.70;99.90;;;;;;5058772;28;20040;-72
2023/03/22 06:29:09;;;;;;;7.78;4.00;;;9.70;99.90;;;;;;5074809;28;20036;-72
2023/03/22 06:31:34;;;;;;;7.57;2.92;;;9.70;99.90;;;;;;5078621;28;20042;-72
2023/03/22 06:34:00;;;;;;;7.95;4.30;;;9.80;99.90;;;;;;5062509;28;20032;-72
2023/03/22 06:36:25;;;;;;;8.55;3.53;;;9.80;99.90;;;;;;5073063;28;20039;-72
2023/03/22 06:38:52;;;;;;;8.80;3.42;;;9.80;99.90;;;;;;5070613;28;20401;-72
2023/03/22 06:41:18;;;;;;;7.28;2.80;;;9.80;99.90;;;;;;5086797;28;20127;-72
2023/03/22 06:43:44;;;;;;;7.05;3.33;;;9.80;99.90;;;;;;5068777;28;20585;-72
2023/03/22 06:46:10;;;;;;;9.23;3.05;;;9.90;99.90;;;;;;5098450;27;20501;-72
2023/03/22 06:48:35;;;;;;;6.50;3.03;;;9.90;99.90;;;;;;5082387;28;20600;-72
2023/03/22 06:51:01;;;;;;;7.43;2.95;;;9.90;99.90;;;;;;5067100;28;20549;-71
2023/03/22 06:53:27;;;;;;;6.88;3.38;;;9.90;99.90;;;;;;5080527;28;20047;-72
2023/03/22 06:55:53;;;;;;;8.25;3.08;;;10.00;99.90;;;;;;5107147;27;20036;-72
2023/03/22 06:58:18;;;;;;;7.47;3.50;;;10.00;99.90;;;;;;5084339;28;20028;-72
2023/03/22 07:00:44;;;;;;;7.32;3.22;;;10.00;99.90;;;;;;5100889;27;20055;-72
2023/03/22 07:03:09;;;;;;;12.30;3.55;;;10.00;99.90;;;;;;5069632;28;20161;-72
2023/03/22 07:05:35;;;;;;;5.72;3.17;;;10.10;99.90;;;;;;5059110;28;20036;-72
2023/03/22 07:08:01;;;;;;;6.78;2.90;;;10.10;99.90;;;;;;5069787;28;20090;-72
2023/03/22 07:10:27;;;;;;;14.02;3.45;;;10.10;99.90;;;;;;5054027;28;20048;-75
2023/03/22 07:12:53;;;;;;;8.48;3.03;;;10.20;99.90;;;;;;5090246;28;20432;-76
2023/03/22 07:15:23;;;;;;;9.38;3.03;;;10.20;99.90;;;;;;5090934;28;20135;-75
2023/03/22 07:17:50;;;;;;;6.63;2.67;;;10.20;99.90;;;;;;5070106;28;20032;-78
2023/03/22 07:20:17;;;;;;;4.85;2.60;;;10.20;99.90;;;;;;5067605;28;20136;-72
2023/03/22 07:22:43;;;;;;;6.22;2.85;;;10.30;99.90;;;;;;5072141;28;20028;-72
2023/03/22 07:25:09;;;;;;;6.90;2.63;;;10.30;99.90;;;;;;5068457;28;20035;-72
2023/03/22 07:27:35;;;;;;;5.88;2.30;;;10.40;99.90;;;;;;5106914;27;20043;-72
2023/03/22 07:30:01;;;;;;;7.15;2.60;;;10.40;99.90;;;;;;5074076;28;20132;-72
2023/03/22 07:32:27;;;;;;;4.70;2.05;;;10.40;99.90;;;;;;5088985;28;20540;-72
2023/03/22 07:34:53;;;;;;;5.07;2.60;;;10.40;99.90;;;;;;5070624;28;20044;-72
2023/03/22 07:37:19;;;;;;;6.63;2.45;;;10.50;99.90;;;;;;5076567;28;20032;-72
2023/03/22 07:39:44;;;;;;;6.10;2.70;;;10.40;99.90;;;;;;5077312;28;20055;-72
2023/03/22 07:42:10;;;;;;;8.45;2.90;;;10.50;99.90;;;;;;5074151;28;20036;-72
2023/03/22 07:44:36;;;;;;;6.35;2.70;;;10.50;99.90;;;;;;5077793;28;20382;-73
2023/03/22 07:47:01;;;;;;;5.53;2.35;;;10.60;99.90;;;;;;5072123;28;20039;-72
2023/03/22 07:49:27;;;;;;;5.38;2.45;;;10.60;99.90;;;;;;5078935;28;20060;-72
2023/03/22 07:51:53;;;;;;;6.88;2.33;;;10.60;99.90;;;;;;5075103;28;20481;-72
2023/03/22 07:54:18;;;;;;;5.53;2.05;;;10.60;99.90;;;;;;5071339;28;20043;-72
2023/03/22 07:56:46;;;;;;;5.13;2.03;;;10.60;99.90;;;;;;5075794;28;20497;-72
2023/03/22 07:59:12;;;;;;;4.28;1.88;;;10.60;99.90;;;;;;5074349;28;20036;-72
2023/03/22 08:01:38;;;;;;;3.80;2.20;;;10.60;99.90;;;;;;5054207;28;20116;-72
2023/03/22 08:04:04;;;;;;;7.05;2.75;;;10.60;99.90;;;;;;5073829;28;20267;-72
2023/03/22 08:06:31;;;;;;;7.35;2.55;;;10.60;99.90;;;;;;5073909;28;20040;-72
2023/03/22 08:08:57;;;;;;;5.28;2.20;;;10.60;99.90;;;;;;5053418;28;20056;-72
2023/03/22 08:11:23;;;;;;;5.97;1.98;;;10.60;99.90;;;;;;5102599;27;20050;-72
2023/03/22 08:13:49;;;;;;;4.03;2.10;;;10.60;99.90;;;;;;5054650;28;20048;-72
2023/03/22 08:16:15;;;;;;;6.10;2.30;;;10.50;99.90;;;;;;5055463;28;20052;-72
2023/03/22 08:18:40;;;;;;;6.20;2.20;;;10.60;99.90;;;;;;5055640;28;20028;-72
2023/03/22 08:21:06;;;;;;;4.80;2.40;;;10.60;99.90;;;;;;5074954;28;20100;-72
2023/03/22 08:23:32;;;;;;;7.60;2.40;;;10.60;99.90;;;;;;5059413;28;20041;-72
2023/03/22 08:25:58;;;;;;;7.35;2.00;;;10.60;99.90;;;;;;5069542;28;20070;-72
2023/03/22 08:28:23;;;;;;;6.93;1.73;;;10.70;99.90;;;;;;5075340;28;20130;-72
2023/03/22 08:30:49;;;;;;;6.28;2.22;;;10.70;99.90;;;;;;5072016;28;20025;-72
2023/03/22 08:33:15;;;;;;;4.80;1.95;;;10.80;99.90;;;;;;5057546;28;20058;-72
2023/03/22 08:35:41;;;;;;;4.10;2.40;;;10.80;99.90;;;;;;5070275;28;20434;-72
2023/03/22 08:38:07;;;;;;;5.38;2.00;;;10.80;99.90;;;;;;5053882;28;20039;-72
2023/03/22 08:40:32;;;;;;;3.72;1.80;;;10.80;99.90;;;;;;5070091;28;20036;-72
2023/03/22 08:42:58;;;;;;;5.25;2.05;;;10.80;99.90;;;;;;5059283;28;20073;-72
2023/03/22 08:45:24;;;;;;;2.60;1.40;;;10.80;99.90;;;;;;5070433;28;20162;-72
2023/03/22 08:47:50;;;;;;;4.82;1.95;;;10.70;99.90;;;;;;5068013;28;20048;-72
2023/03/22 08:50:15;;;;;;;3.10;1.63;;;10.70;99.90;;;;;;5072946;28;20036;-72
2023/03/22 08:52:41;;;;;;;4.22;2.03;;;10.80;99.90;;;;;;5071923;28;20101;-72
2023/03/22 08:55:08;;;;;;;3.97;2.35;;;10.80;99.90;;;;;;5077200;28;20036;-71
2023/03/22 08:57:34;;;;;;;2.45;1.65;;;10.80;99.90;;;;;;5070205;28;20028;-72
2023/03/22 09:00:00;;;;;;;4.72;2.20;;;10.90;99.90;;;;;;5078443;28;20040;-71
2023/03/22 09:02:26;;;;;;;3.38;1.85;;;10.90;99.90;;;;;;5073596;28;20028;-71
2023/03/22 09:04:52;;;;;;;2.63;1.67;;;11.00;99.90;;;;;;5071036;28;20040;-71
2023/03/22 09:07:19;;;;;;;3.80;1.80;;;11.10;99.90;;;;;;5076025;28;20036;-71
2023/03/22 09:09:45;;;;;;;2.80;1.45;;;11.20;99.90;;;;;;5056816;28;20082;-71
2023/03/22 09:12:11;;;;;;;5.13;2.00;;;11.10;99.90;;;;;;5053116;28;20056;-71
2023/03/22 09:14:37;;;;;;;4.85;1.55;;;11.20;99.90;;;;;;5069548;28;20055;-71
2023/03/22 09:17:03;;;;;;;4.00;1.85;;;11.10;99.90;;;;;;5056149;28;20111;-71
2023/03/22 09:19:28;;;;;;;4.90;2.15;;;11.20;99.90;;;;;;5056458;28;20033;-71
2023/03/22 09:21:54;;;;;;;5.38;1.67;;;11.10;99.90;;;;;;5071611;28;20050;-72
2023/03/22 09:24:20;;;;;;;4.28;1.38;;;11.20;99.90;;;;;;5084215;28;20053;-71
2023/03/22 09:26:46;;;;;;;5.38;2.00;;;11.30;99.90;;;;;;5067569;28;20293;-74
2023/03/22 09:29:12;;;;;;;4.22;1.55;;;11.30;99.90;;;;;;5068101;28;20053;-72
2023/03/22 09:31:38;;;;;;;6.28;2.38;;;11.30;99.90;;;;;;5074915;28;20039;-71
2023/03/22 09:34:04;;;;;;;5.50;2.00;;;11.30;99.90;;;;;;5083135;28;20117;-71
2023/03/22 09:36:31;;;;;;;10.43;2.05;;;11.20;99.90;;;;;;5073717;28;20028;-71
2023/03/22 09:38:58;;;;;;;4.47;1.60;;;11.20;99.90;;;;;;5066837;28;20178;-71
2023/03/22 09:41:42;;;;;;;4.63;1.60;;;11.30;99.90;;;;;;5070027;28;20317;-71
2023/03/22 09:44:16;;;;;;;5.45;2.10;;;11.30;99.90;;;;;;5088133;28;20074;-71
2023/03/22 09:46:48;;;;;;;3.28;1.20;;;11.30;99.90;;;;;;5054446;28;20054;-71
2023/03/22 09:49:19;;;;;;;4.60;1.48;;;11.30;99.90;;;;;;5066298;28;20123;-71
2023/03/22 09:51:49;;;;;;;6.15;1.73;;;11.30;99.90;;;;;;5086731;28;20170;-71
2023/03/22 09:54:26;;;;;;;2.38;1.17;;;11.30;99.90;;;;;;5074300;28;20087;-71
2023/03/22 09:57:18;;;;;;;7.63;1.20;;;11.30;99.90;;;;;;5066813;28;20115;-71
2023/03/22 10:00:19;;;;;;;3.08;1.50;;;11.40;99.90;;;;;;5106511;27;20118;-71
2023/03/22 10:02:45;;;;;;;5.40;1.33;;;11.30;99.90;;;;;;5074791;28;20055;-72
2023/03/22 10:05:40;;;;;;;3.65;1.35;;;11.30;99.90;;;;;;5070325;28;20044;-72
2023/03/22 10:08:21;;;;;;;4.35;1.38;;;11.20;99.90;;;;;;5060085;28;20105;-71
2023/03/22 10:10:47;;;;;;;2.67;1.23;;;11.20;99.90;;;;;;5052351;28;20043;-71
2023/03/22 10:13:14;;;;;;;5.20;1.40;;;11.10;99.90;;;;;;5073065;28;20040;-71
2023/03/22 10:16:02;;;;;;;4.60;1.63;;;11.10;99.90;;;;;;5075215;28;20043;-71
2023/03/22 10:18:34;;;;;;;5.13;1.60;;;11.10;99.90;;;;;;5071227;28;20075;-72
2023/03/22 10:21:09;;;;;;;3.75;1.50;;;11.10;99.90;;;;;;5067501;28;20454;-71
2023/03/22 10:23:46;;;;;;;6.72;1.42;;;11.00;99.90;;;;;;5072003;28;20859;-71
2023/03/22 10:26:19;;;;;;;3.60;1.70;;;11.00;99.90;;;;;;5089285;28;20044;-72
2023/03/22 10:28:52;;;;;;;1.98;1.05;;;11.00;99.90;;;;;;5061258;28;20036;-71
2023/03/22 10:31:20;;;;;;;3.08;1.67;;;11.00;99.90;;;;;;5106100;27;20035;-71
2023/03/22 10:33:56;;;;;;;3.38;1.20;;;11.00;99.90;;;;;;5055996;28;20072;-71
2023/03/22 10:36:25;;;;;;;4.07;1.55;;;10.90;99.90;;;;;;5070164;28;20155;-72
2023/03/22 10:38:56;;;;;;;3.30;1.17;;;10.90;99.90;;;;;;5083756;28;20067;-72
2023/03/22 10:41:24;;;;;;;5.93;1.73;;;10.90;99.90;;;;;;5076005;28;20089;-72
2023/03/22 10:43:56;;;;;;;3.05;1.52;;;10.80;99.90;;;;;;5065227;28;20088;-72
2023/03/22 10:46:27;;;;;;;4.90;1.58;;;10.90;99.90;;;;;;5058932;28;20074;-72
2023/03/22 10:48:57;;;;;;;5.15;1.27;;;10.80;99.90;;;;;;5080234;28;20076;-72
2023/03/22 10:51:39;;;;;;;3.88;1.40;;;10.90;99.90;;;;;;5073271;28;20451;-72
2023/03/22 10:54:05;;;;;;;2.70;1.08;;;10.80;99.90;;;;;;5090884;28;20028;-72
2023/03/22 10:56:31;;;;;;;3.38;1.45;;;10.80;99.90;;;;;;5105478;27;20055;-72
2023/03/22 10:58:57;;;;;;;3.38;1.15;;;10.80;99.90;;;;;;5058068;28;20480;-72
2023/03/22 11:01:32;;;;;;;2.70;1.48;;;10.80;99.90;;;;;;5077801;28;20048;-72
2023/03/22 11:04:05;;;;;;;3.85;1.60;;;10.80;99.90;;;;;;5073146;28;20440;-72
2023/03/22 11:06:34;;;;;;;5.65;1.58;;;10.80;99.90;;;;;;5069091;28;20048;-72
2023/03/22 11:09:13;;;;;;;3.13;1.35;;;10.70;99.90;;;;;;5072209;28;20043;-72
2023/03/22 11:11:59;;;;;;;5.25;1.48;;;10.70;99.90;;;;;;5066900;28;20434;-72
2023/03/22 11:14:43;;;;;;;3.38;1.25;;;10.70;99.90;;;;;;5070417;28;20044;-72
2023/03/22 11:17:13;;;;;;;2.45;1.15;;;10.70;99.90;;;;;;5104542;27;20052;-71
2023/03/22 11:19:58;;;;;;;2.22;1.27;;;10.60;99.90;;;;;;5073354;28;20402;-72
2023/03/22 11:22:33;;;;;;;5.75;1.50;;;10.60;99.90;;;;;;5075720;28;20457;-72
2023/03/22 11:24:59;;;;;;;;;;;10.60;99.90;;;;;;5079935;28;20537;-71
2023/03/22 11:27:35;;;;;;;3.00;1.35;;;10.60;99.90;;;;;;5076397;28;20011;-72
2023/03/22 11:30:23;;;;;;;3.13;0.98;;;10.60;99.90;;;;;;5056418;28;20409;-72
2023/03/22 11:33:04;;;;;;;2.90;1.10;;;10.60;99.90;;;;;;5071732;28;20040;-72
2023/03/22 11:35:30;;;;;;;2.10;1.27;;;10.60;99.90;;;;;;5097707;27;20055;-72
2023/03/22 11:37:56;;;;;;;3.47;1.05;;;10.60;99.90;;;;;;5075237;28;20158;-72
2023/03/22 11:40:30;;;;;;;2.00;1.05;;;10.60;99.90;;;;;;5070958;28;20128;-71
2023/03/22 11:43:12;;;;;;;2.40;1.00;;;10.60;99.90;;;;;;5071376;28;20071;-72
2023/03/22 11:45:41;;;;;;;2.88;1.15;;;10.60;99.90;;;;;;5078425;28;20644;-71
2023/03/22 11:48:27;;;;;;;1.55;1.00;;;10.60;99.90;;;;;;5069428;28;20044;-71
2023/03/22 11:51:02;;;;;;;5.03;1.45;;;10.70;99.90;;;;;;5053469;28;20651;-72
2023/03/22 11:53:32;;;;;;;4.18;1.20;;;10.70;99.90;;;;;;5054902;28;20093;-72
2023/03/22 11:55:58;;;;;;;3.28;1.45;;;10.70;99.90;;;;;;5074283;28;20431;-72
2023/03/22 11:58:28;;;;;;;5.40;1.38;;;10.70;99.90;;;;;;5067951;28;20371;-72
2023/03/22 12:00:59;;;;;;;3.63;1.00;;;10.70;99.90;;;;;;5068470;28;20150;-72
2023/03/22 12:03:29;;;;;;;3.25;1.10;;;10.80;99.90;;;;;;5073415;28;20036;-72
2023/03/22 12:05:57;;;;;;;3.42;1.02;;;10.70;99.90;;;;;;5083166;28;20037;-72
2023/03/22 12:08:43;;;;;;;4.28;1.38;;;10.70;99.90;;;;;;5070173;28;20229;-72
2023/03/22 12:11:42;;;;;;;4.13;1.42;;;10.70;99.90;;;;;;5085157;28;20786;-72
2023/03/22 12:14:31;;;;;;;6.43;1.48;;;10.70;99.90;;;;;;5087628;28;20527;-72
2023/03/22 12:17:09;;;;;;;3.60;1.67;;;10.70;99.90;;;;;;5070366;28;20039;-72
2023/03/22 12:19:58;;;;;;;2.83;1.27;;;10.80;99.90;;;;;;5071702;28;20040;-72
2023/03/22 12:22:33;;;;;;;3.95;1.17;;;10.70;99.90;;;;;;5055387;28;20124;-71
2023/03/22 12:25:00;;;;;;;4.38;1.23;;;10.70;99.90;;;;;;5072672;28;20489;-71
2023/03/22 12:27:38;;;;;;;2.83;1.35;;;10.70;99.90;;;;;;5067305;28;20063;-72
2023/03/22 12:30:07;;;;;;;2.92;1.10;;;10.70;99.90;;;;;;5068187;28;20048;-72
2023/03/22 12:32:37;;;;;;;2.72;1.33;;;10.70;99.90;;;;;;5067249;28;20040;-72
2023/03/22 12:35:05;;;;;;;3.58;1.20;;;10.70;99.90;;;;;;5063125;28;20040;-72
2023/03/22 12:37:34;;;;;;;4.15;1.40;;;10.70;99.90;;;;;;5065800;28;20173;-71
2023/03/22 12:40:21;;;;;;;3.00;1.25;;;10.70;99.90;;;;;;5070978;28;20941;-71
2023/03/22 12:42:55;;;;;;;5.10;1.80;;;10.70;99.90;;;;;;5065748;28;20099;-72
2023/03/22 12:45:26;;;;;;;2.45;1.27;;;10.70;99.90;;;;;;5069926;28;20040;-72
2023/03/22 12:48:04;;;;;;;7.60;2.72;;;10.70;99.90;;;;;;5066854;28;20397;-72
2023/03/22 12:50:43;;;;;;;12.80;5.50;;;10.70;99.90;;;;;;5080578;28;20115;-71
2023/03/22 12:53:16;;;;;;;5.53;2.50;;;10.70;99.90;;;;;;5095281;27;20167;-71
2023/03/22 12:55:44;;;;;;;2.83;1.52;;;10.70;99.90;;;;;;5055063;28;20039;-72
2023/03/22 12:58:14;;;;;;;10.60;4.40;;;10.70;99.90;;;;;;5066181;28;20166;-71
2023/03/22 13:00:48;;;;;;;14.73;7.22;;;10.70;99.90;;;;;;5069567;28;20033;-71
2023/03/22 13:03:16;;;;;;;12.80;8.25;;;10.70;99.90;;;;;;5069137;28;20044;-71
2023/03/22 13:05:45;;;;;;;4.32;2.85;;;10.60;99.90;;;;;;5049257;28;20032;-71
2023/03/22 13:08:12;;;;;;;3.88;2.13;;;10.70;99.90;;;;;;5070646;28;20036;-72